createdAt,value
2017-07-22T00:01:28.239Z,101132.22
2017-07-22T00:03:54.484Z,101142.83
2017-07-22T00:06:20.735Z,101145.79
2017-07-22T00:08:46.960Z,101146.59
2017-07-22T00:11:13.208Z,101144.00
2017-07-22T00:13:39.454Z,101138.94
2017-07-22T00:17:35.404Z,101138.58
2017-07-22T00:20:01.655Z,101141.53
2017-07-22T00:22:27.917Z,101139.36
2017-07-22T00:24:54.135Z,101140.92
2017-07-22T00:27:20.368Z,101130.56
2017-07-22T00:29:46.612Z,101134.84
2017-07-22T00:32:12.825Z,101140.12
2017-07-22T00:34:39.068Z,101136.39
2017-07-22T00:37:05.307Z,101132.34
2017-07-22T00:39:31.537Z,101131.21
2017-07-22T00:41:57.773Z,101140.06
2017-07-22T00:44:24.000Z,101133.44
2017-07-22T00:46:50.229Z,101128.48
2017-07-22T00:49:16.482Z,101129.91
2017-07-22T00:51:42.708Z,101136.27
2017-07-22T00:54:08.964Z,101133.61
2017-07-22T00:56:35.183Z,101135.37
2017-07-22T00:59:01.417Z,101143.44
2017-07-22T01:01:27.656Z,101133.03
2017-07-22T01:03:53.876Z,101124.52
2017-07-22T01:06:20.113Z,101118.09
2017-07-22T01:08:46.344Z,101126.27
2017-07-22T01:11:12.567Z,101118.67
2017-07-22T01:13:38.853Z,101118.34
2017-07-22T01:17:36.027Z,101108.45
2017-07-22T01:20:02.301Z,101114.17
2017-07-22T01:22:28.551Z,101114.27
2017-07-22T01:24:54.807Z,101109.53
2017-07-22T01:27:21.039Z,101116.77
2017-07-22T01:29:47.272Z,101116.39
2017-07-22T01:32:13.512Z,101117.39
2017-07-22T01:34:39.764Z,101116.64
2017-07-22T01:37:06.049Z,101117.38
2017-07-22T01:39:32.288Z,101121.73
2017-07-22T01:41:58.551Z,101119.29
2017-07-22T01:44:24.777Z,101123.56
2017-07-22T01:46:51.041Z,101128.98
2017-07-22T01:49:17.319Z,101130.55
2017-07-22T01:51:43.575Z,101130.08
2017-07-22T01:54:09.845Z,101125.59
2017-07-22T01:56:36.128Z,101132.84
2017-07-22T01:59:02.395Z,101122.75
2017-07-22T02:01:28.697Z,101125.90
2017-07-22T02:03:54.920Z,101119.27
2017-07-22T02:06:21.173Z,101128.44
2017-07-22T02:08:47.415Z,101124.51
2017-07-22T02:11:13.633Z,101120.48
2017-07-22T02:13:39.885Z,101127.87
2017-07-22T02:17:35.712Z,101128.12
2017-07-22T02:20:02.000Z,101127.35
2017-07-22T02:22:28.249Z,101126.30
2017-07-22T02:24:54.482Z,101124.85
2017-07-22T02:27:20.718Z,101126.52
2017-07-22T02:29:46.950Z,101127.77
2017-07-22T02:32:13.207Z,101133.96
2017-07-22T02:34:39.439Z,101135.17
2017-07-22T02:37:05.683Z,101137.56
2017-07-22T02:39:31.917Z,101138.34
2017-07-22T02:41:58.137Z,101137.64
2017-07-22T02:44:24.401Z,101131.02
2017-07-22T02:46:50.630Z,101134.86
2017-07-22T02:49:16.857Z,101135.94
2017-07-22T02:51:43.088Z,101134.35
2017-07-22T02:54:09.311Z,101133.96
2017-07-22T02:56:35.745Z,101139.11
2017-07-22T02:59:01.968Z,101129.69
2017-07-22T03:01:28.194Z,101127.75
2017-07-22T03:03:54.411Z,101133.91
2017-07-22T03:06:20.685Z,101130.81
2017-07-22T03:08:46.948Z,101126.76
2017-07-22T03:11:13.179Z,101129.90
2017-07-22T03:13:39.408Z,101125.22
2017-07-22T03:17:35.479Z,101128.22
2017-07-22T03:20:01.749Z,101131.31
2017-07-22T03:22:27.980Z,101136.84
2017-07-22T03:24:54.204Z,101142.59
2017-07-22T03:27:20.483Z,101135.75
2017-07-22T03:29:46.728Z,101147.19
2017-07-22T03:32:12.968Z,101152.86
2017-07-22T03:34:39.280Z,101145.41
2017-07-22T03:37:05.501Z,101148.09
2017-07-22T03:39:31.734Z,101140.80
2017-07-22T03:41:57.955Z,101139.09
2017-07-22T03:44:24.192Z,101141.30
2017-07-22T03:46:50.446Z,101145.17
2017-07-22T03:49:16.691Z,101146.06
2017-07-22T03:51:42.930Z,101146.05
2017-07-22T03:54:09.176Z,101146.05
2017-07-22T03:56:35.404Z,101142.46
2017-07-22T03:59:01.652Z,101141.30
2017-07-22T04:01:27.887Z,101143.98
2017-07-22T04:03:54.116Z,101153.59
2017-07-22T04:06:20.345Z,101158.73
2017-07-22T04:08:46.579Z,101164.72
2017-07-22T04:11:12.827Z,101146.08
2017-07-22T04:13:39.049Z,101151.78
2017-07-22T04:17:35.932Z,101165.40
2017-07-22T04:20:02.166Z,101162.28
2017-07-22T04:22:28.420Z,101162.66
2017-07-22T04:24:54.645Z,101165.30
2017-07-22T04:27:20.881Z,101158.78
2017-07-22T04:29:47.120Z,101158.23
2017-07-22T04:32:13.355Z,101157.30
2017-07-22T04:34:39.609Z,101164.84
2017-07-22T04:37:05.839Z,101167.19
2017-07-22T04:39:32.059Z,101167.10
2017-07-22T04:41:58.276Z,101173.59
2017-07-22T04:44:24.495Z,101165.75
2017-07-22T04:46:50.740Z,101167.19
2017-07-22T04:49:17.244Z,101164.61
2017-07-22T04:51:43.462Z,101172.48
2017-07-22T04:54:09.704Z,101163.23
2017-07-22T04:56:35.949Z,101181.09
2017-07-22T04:59:02.204Z,101180.93
2017-07-22T05:01:28.448Z,101186.25
2017-07-22T05:03:54.699Z,101177.67
2017-07-22T05:06:20.922Z,101179.17
2017-07-22T05:08:47.165Z,101175.05
2017-07-22T05:11:13.416Z,101175.87
2017-07-22T05:13:39.652Z,101174.67
2017-07-22T05:17:36.091Z,101169.34
2017-07-22T05:20:02.343Z,101172.07
2017-07-22T05:22:28.583Z,101168.05
2017-07-22T05:24:54.804Z,101167.80
2017-07-22T05:27:21.040Z,101161.56
2017-07-22T05:29:47.304Z,101168.81
2017-07-22T05:32:13.531Z,101166.56
2017-07-22T05:34:39.764Z,101170.03
2017-07-22T05:37:05.999Z,101168.80
2017-07-22T05:39:32.253Z,101168.63
2017-07-22T05:41:58.512Z,101169.08
2017-07-22T05:44:24.753Z,101171.94
2017-07-22T05:46:50.987Z,101175.98
2017-07-22T05:49:17.213Z,101173.38
2017-07-22T05:51:43.437Z,101168.89
2017-07-22T05:54:09.718Z,101165.75
2017-07-22T05:56:35.939Z,101164.47
2017-07-22T05:59:02.198Z,101165.23
2017-07-22T06:01:28.452Z,101168.13
2017-07-22T06:03:54.716Z,101162.96
2017-07-22T06:06:20.997Z,101173.50
2017-07-22T06:08:48.133Z,101173.98
2017-07-22T06:11:14.365Z,101175.06
2017-07-22T06:13:40.588Z,101178.45
2017-07-22T06:17:35.792Z,101186.71
2017-07-22T06:20:02.055Z,101184.48
2017-07-22T06:22:28.292Z,101193.81
2017-07-22T06:24:54.540Z,101195.64
2017-07-22T06:27:20.789Z,101196.63
2017-07-22T06:29:47.015Z,101193.55
2017-07-22T06:32:13.260Z,101193.33
2017-07-22T06:34:39.496Z,101198.45
2017-07-22T06:37:05.728Z,101203.25
2017-07-22T06:39:31.961Z,101202.68
2017-07-22T06:41:58.203Z,101204.28
2017-07-22T06:44:24.467Z,101204.73
2017-07-22T06:46:50.724Z,101213.91
2017-07-22T06:49:16.978Z,101205.72
2017-07-22T06:51:43.205Z,101211.98
2017-07-22T06:54:09.473Z,101215.55
2017-07-22T06:56:35.740Z,101220.63
2017-07-22T06:59:01.982Z,101220.70
2017-07-22T07:01:28.217Z,101222.80
2017-07-22T07:03:54.452Z,101224.12
2017-07-22T07:06:20.720Z,101228.08
2017-07-22T07:08:46.967Z,101221.06
2017-07-22T07:11:13.195Z,101219.61
2017-07-22T07:13:39.441Z,101218.16
2017-07-22T07:17:36.636Z,101219.55
2017-07-22T07:20:02.893Z,101216.13
2017-07-22T07:22:29.116Z,101217.34
2017-07-22T07:24:55.352Z,101220.55
2017-07-22T07:27:21.637Z,101217.35
2017-07-22T07:29:47.881Z,101217.91
2017-07-22T07:32:14.155Z,101216.64
2017-07-22T07:34:40.397Z,101209.89
2017-07-22T07:37:06.648Z,101215.91
2017-07-22T07:39:32.909Z,101211.30
2017-07-22T07:41:59.149Z,101210.56
2017-07-22T07:44:25.413Z,101217.89
2017-07-22T07:46:51.660Z,101214.34
2017-07-22T07:49:17.875Z,101217.82
2017-07-22T07:51:44.113Z,101218.11
2017-07-22T07:54:10.357Z,101222.63
2017-07-22T07:56:36.730Z,101231.32
2017-07-22T07:59:02.969Z,101231.13
2017-07-22T08:01:29.228Z,101220.27
2017-07-22T08:03:55.461Z,101229.70
2017-07-22T08:06:21.715Z,101225.12
2017-07-22T08:08:48.273Z,101220.41
2017-07-22T08:11:14.533Z,101229.30
2017-07-22T08:13:40.795Z,101227.02
2017-07-22T08:17:35.804Z,101221.44
2017-07-22T08:20:02.058Z,101211.35
2017-07-22T08:22:28.358Z,101215.28
2017-07-22T08:24:54.604Z,101223.02
2017-07-22T08:27:20.852Z,101216.71
2017-07-22T08:29:47.107Z,101218.45
2017-07-22T08:32:13.337Z,101221.92
2017-07-22T08:34:39.604Z,101219.21
2017-07-22T08:37:05.844Z,101226.53
2017-07-22T08:39:32.085Z,101221.06
2017-07-22T08:41:58.356Z,101226.14
2017-07-22T08:44:24.587Z,101220.77
2017-07-22T08:46:50.898Z,101220.54
2017-07-22T08:49:17.147Z,101226.23
2017-07-22T08:51:43.380Z,101222.61
2017-07-22T08:54:09.643Z,101224.48
2017-07-22T08:56:35.877Z,101230.52
2017-07-22T08:59:02.152Z,101224.23
2017-07-22T09:01:28.389Z,101217.92
2017-07-22T09:03:54.619Z,101221.56
2017-07-22T09:06:20.864Z,101220.45
2017-07-22T09:08:47.285Z,101224.34
2017-07-22T09:11:13.549Z,101233.68
2017-07-22T09:13:39.780Z,101227.57
2017-07-22T09:17:35.499Z,101223.02
2017-07-22T09:20:01.867Z,101221.97
2017-07-22T09:22:28.148Z,101220.72
2017-07-22T09:24:54.443Z,101221.18
2017-07-22T09:27:20.724Z,101217.19
2017-07-22T09:29:46.988Z,101219.42
2017-07-22T09:32:15.075Z,101219.52
2017-07-22T09:34:41.326Z,101210.45
2017-07-22T09:37:07.585Z,101228.62
2017-07-22T09:39:33.845Z,101228.65
2017-07-22T09:42:03.008Z,101244.39
2017-07-22T09:44:29.267Z,101241.06
2017-07-22T09:46:55.507Z,101244.67
2017-07-22T09:49:21.763Z,101241.33
2017-07-22T09:51:48.008Z,101250.48
2017-07-22T09:54:14.251Z,101248.59
2017-07-22T09:56:40.513Z,101259.84
2017-07-22T09:59:06.744Z,101254.70
2017-07-22T10:01:33.010Z,101252.80
2017-07-22T10:03:59.241Z,101253.52
2017-07-22T10:06:25.473Z,101253.20
2017-07-22T10:08:51.732Z,101253.65
2017-07-22T10:11:17.967Z,101241.60
2017-07-22T10:13:44.204Z,101251.92
2017-07-22T10:17:35.955Z,101248.28
2017-07-22T10:20:02.236Z,101256.44
2017-07-22T10:22:28.486Z,101245.23
2017-07-22T10:24:54.733Z,101238.21
2017-07-22T10:27:20.989Z,101233.76
2017-07-22T10:29:47.208Z,101238.10
2017-07-22T10:32:13.466Z,101240.05
2017-07-22T10:34:40.099Z,101244.05
2017-07-22T10:37:06.360Z,101244.16
2017-07-22T10:39:32.656Z,101251.81
2017-07-22T10:41:58.885Z,101248.73
2017-07-22T10:44:25.141Z,101242.80
2017-07-22T10:46:51.376Z,101251.36
2017-07-22T10:49:17.620Z,101245.12
2017-07-22T10:51:43.897Z,101249.08
2017-07-22T10:54:10.160Z,101247.14
2017-07-22T10:56:36.448Z,101245.38
2017-07-22T10:59:02.693Z,101235.00
2017-07-22T11:01:28.941Z,101237.50
2017-07-22T11:03:55.176Z,101240.66
2017-07-22T11:06:21.437Z,101243.51
2017-07-22T11:08:47.693Z,101240.97
2017-07-22T11:11:14.325Z,101241.50
2017-07-22T11:13:40.573Z,101241.88
2017-07-22T11:17:35.843Z,101248.25
2017-07-22T11:20:02.123Z,101246.78
2017-07-22T11:22:28.423Z,101248.45
2017-07-22T11:24:54.648Z,101243.28
2017-07-22T11:27:20.884Z,101245.84
2017-07-22T11:29:47.114Z,101240.73
2017-07-22T11:32:13.352Z,101251.75
2017-07-22T11:34:39.661Z,101255.51
2017-07-22T11:37:05.908Z,101251.68
2017-07-22T11:39:32.145Z,101257.84
2017-07-22T11:41:58.957Z,101256.10
2017-07-22T11:44:25.192Z,101255.56
2017-07-22T11:46:51.437Z,101255.10
2017-07-22T11:49:17.669Z,101252.14
2017-07-22T11:51:43.926Z,101246.08
2017-07-22T11:54:10.179Z,101251.03
2017-07-22T11:56:36.440Z,101243.54
2017-07-22T11:59:02.716Z,101243.14
2017-07-22T12:01:28.948Z,101251.94
2017-07-22T12:03:55.176Z,101246.24
2017-07-22T12:06:21.441Z,101236.85
2017-07-22T12:08:47.696Z,101240.27
2017-07-22T12:11:13.970Z,101246.87
2017-07-22T12:13:40.219Z,101238.82
2017-07-22T12:17:35.541Z,101239.47
2017-07-22T12:20:01.788Z,101235.80
2017-07-22T12:22:28.795Z,101232.03
2017-07-22T12:24:55.076Z,101239.81
2017-07-22T12:27:21.311Z,101235.94
2017-07-22T12:29:47.561Z,101231.88
2017-07-22T12:32:13.819Z,101232.92
2017-07-22T12:34:40.067Z,101236.79
2017-07-22T12:37:06.388Z,101231.23
2017-07-22T12:39:32.672Z,101231.68
2017-07-22T12:41:58.917Z,101236.34
2017-07-22T12:44:25.156Z,101229.55
2017-07-22T12:46:51.380Z,101234.20
2017-07-22T12:49:17.631Z,101236.64
2017-07-22T12:51:44.012Z,101236.20
2017-07-22T12:54:10.265Z,101239.86
2017-07-22T12:56:36.508Z,101249.91
2017-07-22T12:59:02.759Z,101246.48
2017-07-22T13:01:29.005Z,101242.17
2017-07-22T13:03:55.264Z,101250.50
2017-07-22T13:06:21.515Z,101253.66
2017-07-22T13:08:47.747Z,101255.52
2017-07-22T13:11:13.981Z,101250.37
2017-07-22T13:13:40.237Z,101254.88
2017-07-22T13:17:36.753Z,101247.70
2017-07-22T13:20:03.018Z,101258.86
2017-07-22T13:22:29.255Z,101258.20
2017-07-22T13:24:55.529Z,101262.48
2017-07-22T13:27:21.780Z,101264.91
2017-07-22T13:29:48.023Z,101263.67
2017-07-22T13:32:14.253Z,101263.54
2017-07-22T13:34:40.481Z,101275.23
2017-07-22T13:37:06.880Z,101288.67
2017-07-22T13:39:33.112Z,101296.89
2017-07-22T13:41:59.365Z,101300.45
2017-07-22T13:44:25.592Z,101309.08
2017-07-22T13:46:51.828Z,101309.45
2017-07-22T13:49:18.098Z,101303.64
2017-07-22T13:51:45.104Z,101313.85
2017-07-22T13:54:11.356Z,101310.66
2017-07-22T13:56:37.594Z,101312.63
2017-07-22T13:59:03.851Z,101311.34
2017-07-22T14:01:30.114Z,101320.60
2017-07-22T14:03:56.341Z,101327.53
2017-07-22T14:06:22.580Z,101321.90
2017-07-22T14:08:48.818Z,101325.59
2017-07-22T14:11:15.069Z,101329.58
2017-07-22T14:13:41.328Z,101319.62
2017-07-22T14:17:35.146Z,101292.63
2017-07-22T14:20:08.352Z,101290.63
2017-07-22T14:22:34.597Z,101287.00
2017-07-22T14:25:00.837Z,101288.96
2017-07-22T14:27:27.237Z,101280.67
2017-07-22T14:29:53.496Z,101276.59
2017-07-22T14:32:19.776Z,101272.83
2017-07-22T14:34:46.042Z,101266.12
2017-07-22T14:37:12.280Z,101264.50
2017-07-22T14:39:38.524Z,101264.43
2017-07-22T14:42:04.745Z,101254.63
2017-07-22T14:44:31.013Z,101259.77
2017-07-22T14:46:57.263Z,101263.07
2017-07-22T14:49:23.503Z,101260.23
2017-07-22T14:51:49.750Z,101258.04
2017-07-22T14:54:15.989Z,101252.61
2017-07-22T14:56:42.240Z,101246.98
2017-07-22T14:59:08.469Z,101247.96
2017-07-22T15:01:34.708Z,101252.59
2017-07-22T15:04:00.940Z,101242.83
2017-07-22T15:06:27.160Z,101244.37
2017-07-22T15:08:53.455Z,101252.17
2017-07-22T15:11:19.696Z,101242.30
2017-07-22T15:13:45.947Z,101234.38
2017-07-22T15:17:36.585Z,101237.22
2017-07-22T15:20:02.832Z,101232.86
2017-07-22T15:22:29.100Z,101229.89
2017-07-22T15:24:55.335Z,101226.25
2017-07-22T15:27:21.585Z,101231.35
2017-07-22T15:29:48.029Z,101224.02
2017-07-22T15:32:14.263Z,101232.88
2017-07-22T15:34:40.529Z,101228.44
2017-07-22T15:37:06.772Z,101241.20
2017-07-22T15:39:33.003Z,101241.66
2017-07-22T15:41:59.255Z,101236.05
2017-07-22T15:44:25.483Z,101231.59
2017-07-22T15:46:51.723Z,101237.63
2017-07-22T15:49:17.980Z,101240.67
2017-07-22T15:51:44.233Z,101240.20
2017-07-22T15:54:10.472Z,101238.28
2017-07-22T15:56:36.726Z,101238.32
2017-07-22T15:59:02.995Z,101228.40
2017-07-22T16:01:29.232Z,101230.92
2017-07-22T16:03:55.824Z,101228.73
2017-07-22T16:06:22.079Z,101234.75
2017-07-22T16:08:48.317Z,101238.33
2017-07-22T16:11:21.571Z,101232.05
2017-07-22T16:13:47.800Z,101232.54
2017-07-22T16:17:35.648Z,101235.14
2017-07-22T16:20:01.918Z,101228.97
2017-07-22T16:22:28.183Z,101247.37
2017-07-22T16:24:54.450Z,101255.62
2017-07-22T16:27:20.734Z,101253.20
2017-07-22T16:29:47.124Z,101241.75
2017-07-22T16:32:13.374Z,101229.81
2017-07-22T16:34:39.645Z,101215.98
2017-07-22T16:37:05.895Z,101213.41
2017-07-22T16:39:32.163Z,101248.25
2017-07-22T16:41:58.444Z,101277.30
2017-07-22T16:44:24.702Z,101278.82
2017-07-22T16:46:50.953Z,101298.14
2017-07-22T16:49:17.265Z,101330.67
2017-07-22T16:51:43.508Z,101343.33
2017-07-22T16:54:09.759Z,101320.85
2017-07-22T16:56:35.993Z,101316.66
2017-07-22T16:59:02.254Z,101304.81
2017-07-22T17:01:28.518Z,101299.61
2017-07-22T17:03:54.757Z,101299.03
2017-07-22T17:06:21.001Z,101297.66
2017-07-22T17:08:47.236Z,101301.63
2017-07-22T17:11:13.503Z,101307.66
2017-07-22T17:13:39.744Z,101298.54
2017-07-22T17:17:35.291Z,101299.17
2017-07-22T17:20:01.549Z,101307.35
2017-07-22T17:22:27.792Z,101305.42
2017-07-22T17:24:54.022Z,101300.70
2017-07-22T17:27:20.267Z,101304.59
2017-07-22T17:29:46.528Z,101291.01
2017-07-22T17:32:12.769Z,101291.02
2017-07-22T17:34:38.999Z,101281.80
2017-07-22T17:37:05.266Z,101284.03
2017-07-22T17:39:31.524Z,101275.91
2017-07-22T17:41:57.887Z,101274.19
2017-07-22T17:44:24.128Z,101275.09
2017-07-22T17:46:50.522Z,101268.20
2017-07-22T17:49:17.049Z,101262.39
2017-07-22T17:51:43.323Z,101260.75
2017-07-22T17:54:09.616Z,101260.91
2017-07-22T17:56:35.860Z,101258.41
2017-07-22T17:59:02.493Z,101257.86
2017-07-22T18:01:29.108Z,101250.30
2017-07-22T18:03:55.454Z,101252.37
2017-07-22T18:06:21.796Z,101246.04
2017-07-22T18:08:48.031Z,101248.50
2017-07-22T18:11:14.297Z,101250.83
2017-07-22T18:13:40.808Z,101245.92
2017-07-22T18:17:36.162Z,101250.38
2017-07-22T18:20:02.592Z,101256.08
2017-07-22T18:22:28.838Z,101248.70
2017-07-22T18:24:55.099Z,101241.91
2017-07-22T18:27:21.348Z,101253.11
2017-07-22T18:29:47.592Z,101258.47
2017-07-22T18:32:13.957Z,101260.30
2017-07-22T18:34:40.221Z,101253.38
2017-07-22T18:37:06.484Z,101256.12
2017-07-22T18:39:32.724Z,101255.77
2017-07-22T18:41:58.994Z,101258.03
2017-07-22T18:44:25.256Z,101255.34
2017-07-22T18:46:58.313Z,101254.28
2017-07-22T18:49:25.788Z,101252.05
2017-07-22T18:51:52.646Z,101254.05
2017-07-22T18:54:18.905Z,101253.81
2017-07-22T18:56:45.181Z,101254.45
2017-07-22T18:59:11.617Z,101248.46
2017-07-22T19:01:37.889Z,101253.25
2017-07-22T19:04:04.195Z,101257.07
2017-07-22T19:06:30.437Z,101258.10
2017-07-22T19:08:56.809Z,101260.33
2017-07-22T19:11:23.271Z,101265.71
2017-07-22T19:13:49.584Z,101258.88
2017-07-22T19:17:37.444Z,101260.50
2017-07-22T19:20:07.964Z,101269.50
2017-07-22T19:22:34.464Z,101275.08
2017-07-22T19:25:00.812Z,101288.92
2017-07-22T19:27:27.769Z,101290.23
2017-07-22T19:29:54.322Z,101300.03
2017-07-22T19:32:20.917Z,101293.28
2017-07-22T19:34:47.224Z,101302.06
2017-07-22T19:37:13.554Z,101297.25
2017-07-22T19:39:39.821Z,101297.27
2017-07-22T19:42:06.585Z,101290.42
2017-07-22T19:44:33.463Z,101285.88
2017-07-22T19:46:59.696Z,101296.79
2017-07-22T19:49:25.979Z,101290.53
2017-07-22T19:51:52.221Z,101286.91
2017-07-22T19:54:18.477Z,101287.48
2017-07-22T19:56:44.794Z,101299.75
2017-07-22T19:59:11.197Z,101301.83
2017-07-22T20:01:37.466Z,101306.02
2017-07-22T20:04:03.893Z,101301.79
2017-07-22T20:06:30.171Z,101305.67
2017-07-22T20:08:56.482Z,101310.95
2017-07-22T20:11:22.816Z,101317.16
2017-07-22T20:13:49.234Z,101311.86
2017-07-22T20:17:35.344Z,101314.20
2017-07-22T20:20:01.640Z,101307.45
2017-07-22T20:22:27.883Z,101300.17
2017-07-22T20:24:54.148Z,101297.42
2017-07-22T20:27:20.857Z,101294.52
2017-07-22T20:29:47.256Z,101294.16
2017-07-22T20:32:13.568Z,101290.80
2017-07-22T20:34:40.875Z,101288.72
2017-07-22T20:37:07.329Z,101285.12
2017-07-22T20:39:33.720Z,101282.77
2017-07-22T20:41:59.972Z,101279.20
2017-07-22T20:44:26.244Z,101280.58
2017-07-22T20:46:52.561Z,101276.55
2017-07-22T20:49:18.837Z,101280.83
2017-07-22T20:51:45.095Z,101282.09
2017-07-22T20:54:11.378Z,101282.59
2017-07-22T20:56:38.039Z,101292.82
2017-07-22T20:59:04.307Z,101295.16
2017-07-22T21:01:30.675Z,101298.70
2017-07-22T21:03:57.053Z,101300.41
2017-07-22T21:06:23.348Z,101305.26
2017-07-22T21:08:49.645Z,101309.56
2017-07-22T21:11:15.904Z,101320.34
2017-07-22T21:13:42.228Z,101316.43
2017-07-22T21:17:36.050Z,101309.31
2017-07-22T21:20:02.312Z,101309.80
2017-07-22T21:22:28.583Z,101314.48
2017-07-22T21:24:54.836Z,101323.05
2017-07-22T21:27:21.088Z,101322.02
2017-07-22T21:29:47.359Z,101330.33
2017-07-22T21:32:13.600Z,101327.21
2017-07-22T21:34:39.914Z,101337.89
2017-07-22T21:37:06.177Z,101347.70
2017-07-22T21:39:33.221Z,101348.13
2017-07-22T21:41:59.520Z,101342.40
2017-07-22T21:44:25.773Z,101341.16
2017-07-22T21:46:52.049Z,101345.03
2017-07-22T21:49:18.293Z,101348.11
2017-07-22T21:51:44.560Z,101342.89
2017-07-22T21:54:10.808Z,101340.80
2017-07-22T21:56:37.078Z,101335.23
2017-07-22T21:59:03.409Z,101329.13
2017-07-22T22:01:29.653Z,101327.34
2017-07-22T22:03:55.896Z,101328.66
2017-07-22T22:06:22.135Z,101328.00
2017-07-22T22:08:48.388Z,101321.07
2017-07-22T22:11:14.651Z,101322.55
2017-07-22T22:13:40.898Z,101327.65
2017-07-22T22:17:35.751Z,101326.47
2017-07-22T22:20:02.009Z,101321.89
2017-07-22T22:22:28.282Z,101319.45
2017-07-22T22:24:54.524Z,101313.87
2017-07-22T22:27:20.811Z,101317.09
2017-07-22T22:29:47.040Z,101323.77
2017-07-22T22:32:13.292Z,101320.20
2017-07-22T22:34:39.540Z,101328.11
2017-07-22T22:37:05.773Z,101332.88
2017-07-22T22:39:32.030Z,101330.88
2017-07-22T22:41:58.271Z,101332.86
2017-07-22T22:44:24.521Z,101328.59
2017-07-22T22:46:50.789Z,101327.99
2017-07-22T22:49:17.056Z,101317.89
2017-07-22T22:51:50.216Z,101317.98
2017-07-22T22:54:16.444Z,101321.11
2017-07-22T22:56:42.675Z,101310.55
2017-07-22T22:59:08.924Z,101313.03
2017-07-22T23:01:35.168Z,101305.09
2017-07-22T23:04:01.420Z,101306.16
2017-07-22T23:06:27.661Z,101309.92
2017-07-22T23:08:53.980Z,101304.72
2017-07-22T23:11:20.252Z,101287.03
2017-07-22T23:13:46.478Z,101289.21
2017-07-22T23:17:36.855Z,101289.12
2017-07-22T23:20:03.106Z,101292.40
2017-07-22T23:22:29.350Z,101282.97
2017-07-22T23:24:55.792Z,101279.52
2017-07-22T23:27:22.032Z,101266.45
2017-07-22T23:29:48.292Z,101257.73
2017-07-22T23:32:14.543Z,101258.41
2017-07-22T23:34:40.767Z,101250.96
2017-07-22T23:37:06.992Z,101256.31
2017-07-22T23:39:33.240Z,101263.17
2017-07-22T23:41:59.479Z,101272.55
2017-07-22T23:44:25.706Z,101265.38
2017-07-22T23:46:51.935Z,101260.44
2017-07-22T23:49:18.163Z,101265.02
2017-07-22T23:51:44.402Z,101266.19
2017-07-22T23:54:10.668Z,101271.52
2017-07-22T23:56:36.908Z,101278.37
2017-07-22T23:59:03.133Z,101292.17
